Terminal Aerodrome Forecast
Issued by NWS

Home | Current Version | Previous Version | Text Only | Print | Product List | Glossary On
Versions: 1 2 3 4 5 6 7 8 9 10 11 12 13 14 15 16 17 18 19 20 21 22 23 24 25 26 27 28 29 30 31 32 33 34 35 36 37 38
000
FTUS41 KRNK 230726 AAA
TAFBCB
TAF AMD
KBCB 230726Z 2307/2406 00000KT 6SM BR SCT050 BKN070 OVC100
     FM230800 00000KT 5SM BR BKN025 OVC050
      TEMPO 2309/2312 1 1/2SM BR
     FM231400 VRB03KT P6SM VCSH SCT025 OVC050
     FM231900 VRB04KT P6SM VCTS BKN035CB OVC050
     FM240000 00000KT 5SM -DZ BR OVC025=

USA.gov is the U.S. government's official web portal to all federal, state and local government web resources and services.